createdAt,value
2018-11-04T00:01:27.561Z,7.03
2018-11-04T00:03:57.520Z,6.05
2018-11-04T00:06:27.591Z,6.75
2018-11-04T00:08:57.475Z,8.03
2018-11-04T00:11:27.546Z,7.28
2018-11-04T00:13:57.505Z,5.83
2018-11-04T00:16:27.503Z,6.15
2018-11-04T00:18:57.566Z,6.65
2018-11-04T00:21:27.446Z,7.40
2018-11-04T00:23:57.620Z,5.90
2018-11-04T00:26:27.634Z,6.33
2018-11-04T00:28:57.626Z,4.65
2018-11-04T00:31:27.496Z,5.95
2018-11-04T00:33:57.795Z,5.30
2018-11-04T00:36:27.602Z,5.83
2018-11-04T00:38:57.565Z,5.97
2018-11-04T00:41:27.622Z,6.25
2018-11-04T00:43:57.663Z,5.67
2018-11-04T00:46:27.590Z,4.55
2018-11-04T00:48:57.598Z,7.03
2018-11-04T00:51:27.529Z,5.17
2018-11-04T00:53:57.562Z,8.88
2018-11-04T00:56:27.559Z,6.15
2018-11-04T00:58:57.546Z,6.83
2018-11-04T01:01:27.604Z,7.92
2018-11-04T01:03:57.748Z,6.58
2018-11-04T01:06:27.639Z,6.08
2018-11-04T01:08:57.691Z,5.78
2018-11-04T01:11:27.738Z,7.25
2018-11-04T01:13:58.518Z,8.85
2018-11-04T01:16:27.679Z,6.70
2018-11-04T01:18:57.638Z,7.40
2018-11-04T01:21:27.631Z,6.12
2018-11-04T01:23:57.666Z,6.70
2018-11-04T01:26:27.718Z,7.15
2018-11-04T01:28:57.755Z,8.73
2018-11-04T01:31:27.635Z,8.30
2018-11-04T01:33:57.746Z,6.40
2018-11-04T01:36:27.654Z,5.42
2018-11-04T01:38:57.592Z,7.55
2018-11-04T01:41:27.696Z,5.65
2018-11-04T01:43:57.690Z,7.12
2018-11-04T01:46:27.663Z,7.08
2018-11-04T01:48:57.731Z,7.70
2018-11-04T01:51:27.834Z,7.05
2018-11-04T01:53:57.759Z,4.83
2018-11-04T01:56:27.686Z,5.37
2018-11-04T01:58:57.723Z,8.35
2018-11-04T02:01:27.718Z,5.67
2018-11-04T02:03:57.890Z,8.90
2018-11-04T02:06:27.911Z,6.42
2018-11-04T02:08:57.898Z,6.33
2018-11-04T02:11:27.816Z,7.70
2018-11-04T02:13:57.682Z,9.10
2018-11-04T02:16:27.791Z,5.55
2018-11-04T02:18:57.731Z,4.83
2018-11-04T02:21:27.759Z,7.05
2018-11-04T02:23:57.933Z,7.55
2018-11-04T02:26:27.794Z,5.87
2018-11-04T02:28:57.714Z,4.77
2018-11-04T02:31:27.881Z,9.03
2018-11-04T02:33:57.842Z,5.75
2018-11-04T02:36:27.804Z,5.37
2018-11-04T02:38:57.755Z,5.03
2018-11-04T02:41:27.770Z,5.00
2018-11-04T02:43:57.850Z,7.00
2018-11-04T02:46:27.810Z,8.38
2018-11-04T02:48:57.884Z,5.33
2018-11-04T02:51:27.998Z,6.35
2018-11-04T02:53:57.746Z,8.17
2018-11-04T02:56:27.927Z,6.95
2018-11-04T02:58:57.787Z,5.42
2018-11-04T03:01:27.811Z,6.78
2018-11-04T03:03:57.832Z,6.58
2018-11-04T03:06:27.847Z,6.33
2018-11-04T03:08:57.850Z,5.55
2018-11-04T03:11:27.886Z,7.70
2018-11-04T03:13:58.024Z,5.03
2018-11-04T03:16:27.814Z,4.12
2018-11-04T03:18:57.818Z,4.92
2018-11-04T03:21:27.859Z,5.03
2018-11-04T03:23:57.915Z,4.95
2018-11-04T03:26:28.147Z,6.58
2018-11-04T03:28:57.895Z,5.10
2018-11-04T03:31:27.972Z,6.17
2018-11-04T03:33:57.895Z,8.40
2018-11-04T03:36:27.860Z,10.98
2018-11-04T03:38:58.314Z,7.62
2018-11-04T03:41:27.960Z,6.30
2018-11-04T03:43:57.861Z,4.50
2018-11-04T03:46:27.951Z,4.75
2018-11-04T03:48:57.928Z,3.50
2018-11-04T03:51:27.851Z,6.10
2018-11-04T03:53:57.867Z,6.33
2018-11-04T03:56:28.150Z,5.58
2018-11-04T03:58:57.942Z,8.70
2018-11-04T04:01:28.134Z,9.00
2018-11-04T04:03:57.926Z,10.23
2018-11-04T04:06:28.048Z,11.80
2018-11-04T04:08:57.948Z,7.17
2018-11-04T04:11:27.900Z,8.80
2018-11-04T04:13:57.942Z,8.30
2018-11-04T04:16:27.954Z,8.40
2018-11-04T04:18:57.928Z,8.70
2018-11-04T04:21:27.951Z,11.90
2018-11-04T04:23:58.020Z,10.05
2018-11-04T04:26:27.975Z,9.93
2018-11-04T04:28:58.094Z,8.95
2018-11-04T04:31:27.958Z,10.75
2018-11-04T04:33:58.036Z,7.95
2018-11-04T04:36:28.063Z,13.75
2018-11-04T04:38:57.959Z,11.28
2018-11-04T04:41:28.300Z,10.03
2018-11-04T04:43:57.999Z,10.98
2018-11-04T04:46:27.973Z,11.12
2018-11-04T04:48:58.074Z,14.87
2018-11-04T04:51:27.994Z,10.80
2018-11-04T04:53:57.983Z,13.60
2018-11-04T04:56:28.095Z,12.10
2018-11-04T04:58:58.055Z,9.63
2018-11-04T05:01:28.024Z,13.18
2018-11-04T05:03:58.100Z,11.57
2018-11-04T05:06:28.214Z,9.63
2018-11-04T05:08:58.075Z,11.80
2018-11-04T05:11:28.027Z,11.63
2018-11-04T05:13:58.108Z,12.03
2018-11-04T05:16:28.140Z,11.15
2018-11-04T05:18:58.059Z,10.05
2018-11-04T05:21:28.066Z,9.30
2018-11-04T05:23:58.067Z,10.82
2018-11-04T05:26:28.104Z,8.60
2018-11-04T05:28:58.102Z,9.20
2018-11-04T05:31:28.171Z,10.32
2018-11-04T05:33:58.264Z,10.78
2018-11-04T05:36:28.183Z,10.13
2018-11-04T05:38:58.143Z,11.88
2018-11-04T05:41:28.144Z,10.03
2018-11-04T05:43:58.095Z,9.93
2018-11-04T05:46:28.122Z,16.05
2018-11-04T05:48:58.077Z,9.50
2018-11-04T05:51:28.146Z,11.95
2018-11-04T05:53:58.235Z,8.45
2018-11-04T05:56:28.215Z,14.33
2018-11-04T05:58:58.170Z,11.28
2018-11-04T06:01:28.119Z,10.25
2018-11-04T06:03:58.208Z,9.05
2018-11-04T06:06:28.087Z,9.35
2018-11-04T06:08:58.116Z,11.13
2018-11-04T06:11:28.203Z,9.35
2018-11-04T06:13:58.223Z,14.93
2018-11-04T06:16:28.197Z,8.43
2018-11-04T06:18:58.151Z,11.70
2018-11-04T06:21:28.151Z,12.23
2018-11-04T06:23:58.343Z,14.25
2018-11-04T06:26:28.264Z,10.53
2018-11-04T06:28:58.231Z,11.00
2018-11-04T06:31:28.248Z,9.03
2018-11-04T06:33:58.211Z,9.00
2018-11-04T06:36:28.226Z,12.60
2018-11-04T06:38:58.243Z,9.20
2018-11-04T06:41:28.835Z,12.45
2018-11-04T06:43:58.282Z,11.48
2018-11-04T06:46:28.180Z,10.48
2018-11-04T06:48:58.483Z,12.84
2018-11-04T06:51:29.991Z,11.96
2018-11-04T06:53:59.152Z,11.63
2018-11-04T06:56:28.302Z,14.05
2018-11-04T06:58:58.238Z,10.20
2018-11-04T07:01:28.235Z,12.82
2018-11-04T07:04:16.263Z,11.20
2018-11-04T07:06:45.499Z,10.53
2018-11-04T07:09:15.550Z,12.90
2018-11-04T07:11:45.443Z,12.15
2018-11-04T07:14:14.586Z,9.13
2018-11-04T07:16:44.362Z,11.20
2018-11-04T07:19:13.870Z,11.03
2018-11-04T07:21:43.014Z,11.73
2018-11-04T07:24:12.182Z,8.30
2018-11-04T07:26:41.489Z,13.83
2018-11-04T07:29:10.867Z,9.07
2018-11-04T07:31:40.013Z,8.63
2018-11-04T07:34:09.210Z,12.20
2018-11-04T07:36:38.450Z,10.10
2018-11-04T07:39:11.402Z,12.77
2018-11-04T07:41:43.385Z,11.07
2018-11-04T07:44:12.780Z,12.90
2018-11-04T07:46:41.891Z,12.63
2018-11-04T07:49:11.111Z,15.13
2018-11-04T07:51:40.264Z,11.80
2018-11-04T07:54:09.386Z,13.17
2018-11-04T07:56:38.533Z,10.95
2018-11-04T07:59:14.460Z,12.03
2018-11-04T08:01:43.854Z,10.10
2018-11-04T08:04:13.069Z,11.90
2018-11-04T08:06:46.576Z,12.70
2018-11-04T08:09:23.948Z,11.63
2018-11-04T08:11:53.854Z,16.87
2018-11-04T08:14:23.031Z,13.57
2018-11-04T08:16:52.158Z,11.13
2018-11-04T08:19:21.326Z,14.98
2018-11-04T08:21:50.471Z,11.17
2018-11-04T08:24:19.745Z,12.90
2018-11-04T08:26:48.894Z,9.57
2018-11-04T08:29:18.142Z,14.53
2018-11-04T08:31:47.441Z,11.77
2018-11-04T08:34:16.660Z,12.17
2018-11-04T08:36:45.796Z,9.97
2018-11-04T08:39:14.955Z,12.07
2018-11-04T08:41:51.204Z,13.07
2018-11-04T08:44:25.676Z,10.93
2018-11-04T08:46:54.926Z,11.23
2018-11-04T08:49:24.074Z,12.10
2018-11-04T08:51:53.235Z,7.03
2018-11-04T08:54:22.400Z,14.00
2018-11-04T08:56:51.576Z,13.30
2018-11-04T08:59:20.747Z,9.43
2018-11-04T09:01:49.902Z,11.33
2018-11-04T09:04:19.046Z,15.33
2018-11-04T09:06:48.205Z,12.83
2018-11-04T09:09:17.404Z,9.17
2018-11-04T09:11:46.576Z,10.77
2018-11-04T09:14:15.753Z,11.60
2018-11-04T09:16:52.125Z,11.03
2018-11-04T09:19:21.277Z,9.67
2018-11-04T09:21:51.041Z,10.40
2018-11-04T09:24:20.119Z,11.50
2018-11-04T09:26:49.272Z,10.43
2018-11-04T09:29:18.464Z,9.83
2018-11-04T09:31:47.559Z,11.00
2018-11-04T09:34:16.718Z,11.23
2018-11-04T09:36:47.576Z,8.10
2018-11-04T09:39:16.784Z,7.35
2018-11-04T09:41:45.922Z,8.03
2018-11-04T09:44:15.322Z,10.80
2018-11-04T09:46:44.459Z,9.27
2018-11-04T09:49:13.831Z,9.00
2018-11-04T09:51:42.987Z,9.17
2018-11-04T09:54:12.123Z,9.37
2018-11-04T09:56:41.344Z,12.07
2018-11-04T09:59:10.442Z,9.87
2018-11-04T10:01:39.582Z,8.15
2018-11-04T10:04:08.710Z,9.80
2018-11-04T10:06:37.846Z,12.47
2018-11-04T10:09:09.480Z,8.80
2018-11-04T10:11:38.666Z,7.63
2018-11-04T10:14:08.406Z,7.70
2018-11-04T10:16:38.037Z,6.35
2018-11-04T10:19:07.372Z,9.30
2018-11-04T10:21:36.444Z,9.07
2018-11-04T10:24:06.000Z,9.80
2018-11-04T10:26:35.243Z,11.23
2018-11-04T10:29:04.479Z,9.10
2018-11-04T10:31:33.673Z,13.58
2018-11-04T10:34:02.851Z,10.08
2018-11-04T10:36:32.024Z,7.50
2018-11-04T10:39:01.183Z,13.73
2018-11-04T10:41:30.345Z,8.50
2018-11-04T10:43:59.690Z,10.37
2018-11-04T10:46:28.864Z,8.80
2018-11-04T10:48:58.674Z,8.75
2018-11-04T10:51:28.695Z,10.35
2018-11-04T10:53:58.679Z,8.15
2018-11-04T10:56:28.732Z,11.50
2018-11-04T10:58:58.766Z,8.63
2018-11-04T11:01:28.879Z,10.00
2018-11-04T11:03:58.943Z,9.30
2018-11-04T11:06:28.763Z,6.62
2018-11-04T11:08:58.804Z,9.80
2018-11-04T11:11:28.844Z,15.18
2018-11-04T11:13:58.851Z,10.50
2018-11-04T11:16:28.779Z,8.98
2018-11-04T11:18:58.790Z,7.50
2018-11-04T11:21:28.762Z,9.20
2018-11-04T11:23:58.871Z,9.25
2018-11-04T11:26:28.830Z,9.38
2018-11-04T11:28:58.831Z,9.00
2018-11-04T11:31:28.770Z,9.48
2018-11-04T11:33:58.740Z,9.28
2018-11-04T11:36:28.821Z,9.08
2018-11-04T11:38:58.745Z,7.17
2018-11-04T11:41:28.859Z,8.23
2018-11-04T11:43:58.865Z,8.80
2018-11-04T11:48:55.635Z,7.23
2018-11-04T11:51:24.850Z,8.30
2018-11-04T11:53:54.073Z,6.33
2018-11-04T11:56:23.272Z,7.10
2018-11-04T11:58:52.398Z,8.03
2018-11-04T12:01:21.595Z,9.07
2018-11-04T12:03:50.756Z,7.80
2018-11-04T12:06:19.911Z,5.60
2018-11-04T12:08:49.136Z,6.03
2018-11-04T12:11:18.307Z,7.43
2018-11-04T12:13:47.721Z,6.27
2018-11-04T12:16:17.160Z,8.00
2018-11-04T12:18:46.404Z,9.10
2018-11-04T12:21:15.565Z,9.00
2018-11-04T12:23:44.823Z,7.87
2018-11-04T12:26:13.866Z,6.37
2018-11-04T12:28:43.028Z,8.43
2018-11-04T12:31:12.201Z,7.13
2018-11-04T12:33:41.340Z,7.20
2018-11-04T12:36:10.535Z,7.27
2018-11-04T12:38:39.716Z,9.48
2018-11-04T12:41:08.863Z,4.62
2018-11-04T12:43:38.445Z,6.73
2018-11-04T12:46:07.587Z,5.77
2018-11-04T12:48:36.748Z,6.17
2018-11-04T12:51:06.100Z,7.30
2018-11-04T12:53:35.248Z,8.47
2018-11-04T12:56:04.395Z,7.83
2018-11-04T12:58:33.631Z,9.03
2018-11-04T13:01:02.976Z,6.23
2018-11-04T13:03:32.282Z,6.03
2018-11-04T13:06:01.535Z,9.87
2018-11-04T13:08:30.782Z,6.20
2018-11-04T13:10:59.925Z,7.03
2018-11-04T13:13:29.127Z,6.17
2018-11-04T13:15:59.118Z,7.22
2018-11-04T13:18:29.190Z,6.35
2018-11-04T13:20:59.277Z,6.90
2018-11-04T13:23:29.274Z,8.33
2018-11-04T13:25:59.044Z,9.70
2018-11-04T13:28:29.251Z,10.60
2018-11-04T13:30:59.067Z,8.55
2018-11-04T13:33:29.095Z,6.97
2018-11-04T13:35:59.164Z,8.73
2018-11-04T13:38:29.195Z,8.95
2018-11-04T13:40:59.085Z,7.57
2018-11-04T13:43:29.102Z,9.38
2018-11-04T13:45:59.232Z,6.03
2018-11-04T13:48:29.114Z,6.53
2018-11-04T13:50:59.210Z,6.42
2018-11-04T13:53:29.228Z,9.20
2018-11-04T13:55:59.143Z,8.18
2018-11-04T13:58:29.214Z,8.70
2018-11-04T14:00:59.190Z,8.20
2018-11-04T14:03:29.194Z,8.23
2018-11-04T14:05:59.230Z,5.37
2018-11-04T14:08:29.226Z,8.30
2018-11-04T14:10:59.230Z,7.03
2018-11-04T14:13:29.446Z,6.55
2018-11-04T14:15:59.283Z,13.03
2018-11-04T14:18:29.205Z,8.73
2018-11-04T14:20:59.243Z,8.33
2018-11-04T14:23:29.360Z,8.35
2018-11-04T14:25:59.372Z,7.37
2018-11-04T14:28:29.307Z,9.78
2018-11-04T14:30:59.399Z,7.92
2018-11-04T14:33:29.306Z,9.60
2018-11-04T14:35:59.253Z,12.05
2018-11-04T14:38:29.464Z,8.08
2018-11-04T14:40:59.302Z,7.28
2018-11-04T14:43:29.421Z,8.25
2018-11-04T14:45:59.384Z,7.87
2018-11-04T14:48:29.367Z,9.93
2018-11-04T14:50:59.578Z,7.15
2018-11-04T14:53:29.403Z,5.30
2018-11-04T14:55:59.391Z,6.60
2018-11-04T14:58:29.296Z,5.73
2018-11-04T15:00:59.820Z,7.03
2018-11-04T15:03:29.395Z,9.37
2018-11-04T15:05:59.276Z,9.85
2018-11-04T15:08:29.476Z,9.28
2018-11-04T15:10:59.441Z,6.50
2018-11-04T15:13:29.431Z,10.05
2018-11-04T15:15:59.403Z,6.35
2018-11-04T15:18:29.410Z,8.38
2018-11-04T15:20:59.400Z,4.95
2018-11-04T15:23:29.350Z,8.33
2018-11-04T15:25:59.371Z,6.33
2018-11-04T15:28:29.444Z,8.60
2018-11-04T15:30:59.401Z,6.97
2018-11-04T15:33:29.343Z,5.60
2018-11-04T15:35:59.336Z,7.10
2018-11-04T15:38:29.465Z,8.73
2018-11-04T15:40:59.547Z,6.03
2018-11-04T15:43:29.588Z,9.75
2018-11-04T15:45:59.847Z,8.63
2018-11-04T15:50:06.524Z,6.30
2018-11-04T15:52:35.779Z,6.90
2018-11-04T15:55:05.105Z,6.77
2018-11-04T15:57:34.207Z,9.27
2018-11-04T16:00:03.414Z,6.70
2018-11-04T16:02:32.704Z,7.70
2018-11-04T16:05:01.866Z,8.58
2018-11-04T16:07:31.023Z,4.43
2018-11-04T16:10:00.170Z,6.47
2018-11-04T16:12:29.399Z,6.77
2018-11-04T16:14:58.685Z,6.90
2018-11-04T16:17:27.903Z,6.37
2018-11-04T16:19:57.112Z,8.40
2018-11-04T16:22:26.243Z,4.13
2018-11-04T16:24:55.416Z,5.20
2018-11-04T16:27:24.619Z,8.40
2018-11-04T16:29:53.898Z,7.50
2018-11-04T16:32:23.035Z,6.33
2018-11-04T16:34:52.183Z,7.63
2018-11-04T16:37:21.388Z,7.00
2018-11-04T16:39:50.547Z,8.77
2018-11-04T16:42:19.810Z,6.77
2018-11-04T16:44:49.202Z,6.87
2018-11-04T16:47:18.368Z,8.60
2018-11-04T16:49:47.512Z,5.00
2018-11-04T16:52:16.655Z,7.77
2018-11-04T16:54:45.814Z,7.47
2018-11-04T16:57:14.938Z,8.30
2018-11-04T16:59:44.193Z,7.80
2018-11-04T17:02:13.348Z,6.67
2018-11-04T17:04:42.593Z,7.73
2018-11-04T17:07:11.659Z,5.87
2018-11-04T17:09:40.823Z,8.70
2018-11-04T17:12:09.955Z,9.03
2018-11-04T17:14:39.597Z,6.47
2018-11-04T17:17:08.738Z,8.57
2018-11-04T17:19:38.054Z,11.43
2018-11-04T17:22:07.286Z,11.80
2018-11-04T17:24:36.692Z,9.87
2018-11-04T17:27:05.944Z,7.93
2018-11-04T17:29:35.130Z,6.93
2018-11-04T17:32:04.458Z,7.13
2018-11-04T17:34:33.827Z,7.27
2018-11-04T17:37:03.220Z,8.53
2018-11-04T17:39:33.229Z,6.42
2018-11-04T17:42:03.176Z,10.55
2018-11-04T17:44:33.291Z,7.47
2018-11-04T17:47:03.239Z,6.87
2018-11-04T17:49:33.409Z,7.67
2018-11-04T17:52:03.185Z,8.30
2018-11-04T17:54:33.335Z,10.03
2018-11-04T17:57:03.191Z,9.33
2018-11-04T17:59:33.348Z,11.00
2018-11-04T18:02:03.268Z,10.78
2018-11-04T18:04:33.212Z,9.98
2018-11-04T18:07:03.250Z,7.53
2018-11-04T18:09:33.243Z,8.60
2018-11-04T18:12:03.296Z,6.17
2018-11-04T18:14:33.215Z,8.97
2018-11-04T18:17:03.387Z,6.62
2018-11-04T18:19:33.232Z,9.55
2018-11-04T18:22:03.248Z,8.35
2018-11-04T18:24:33.346Z,7.37
2018-11-04T18:27:03.306Z,7.17
2018-11-04T18:29:33.277Z,7.33
2018-11-04T18:32:03.348Z,6.33
2018-11-04T18:34:33.472Z,9.70
2018-11-04T18:37:03.348Z,9.63
2018-11-04T18:39:33.331Z,8.00
2018-11-04T18:42:03.348Z,8.00
2018-11-04T18:44:33.407Z,7.67
2018-11-04T18:47:03.394Z,5.35
2018-11-04T18:49:33.368Z,9.45
2018-11-04T18:52:03.523Z,9.58
2018-11-04T18:54:33.446Z,8.28
2018-11-04T18:57:03.490Z,7.62
2018-11-04T18:59:33.431Z,10.20
2018-11-04T19:02:03.478Z,7.53
2018-11-04T19:04:33.486Z,8.50
2018-11-04T19:07:03.499Z,10.23
2018-11-04T19:09:33.457Z,9.93
2018-11-04T19:12:03.419Z,8.00
2018-11-04T19:14:33.398Z,8.40
2018-11-04T19:17:03.590Z,9.30
2018-11-04T19:19:33.511Z,7.55
2018-11-04T19:22:03.712Z,8.23
2018-11-04T19:24:33.502Z,8.13
2018-11-04T19:27:03.482Z,9.98
2018-11-04T19:29:33.506Z,8.45
2018-11-04T19:32:03.526Z,6.47
2018-11-04T19:34:33.450Z,6.53
2018-11-04T19:37:03.576Z,7.30
2018-11-04T19:39:33.611Z,5.25
2018-11-04T19:42:03.510Z,5.73
2018-11-04T19:44:33.574Z,7.70
2018-11-04T19:52:27.374Z,5.50
2018-11-04T19:54:56.523Z,7.75
2018-11-04T19:57:29.344Z,6.40
2018-11-04T19:59:59.720Z,6.80
2018-11-04T20:02:29.708Z,8.27
2018-11-04T20:04:59.618Z,5.33
2018-11-04T20:07:28.988Z,6.27
2018-11-04T20:09:58.148Z,6.60
2018-11-04T20:12:32.594Z,6.50
2018-11-04T20:15:01.756Z,6.23
2018-11-04T20:17:30.972Z,7.83
2018-11-04T20:20:05.466Z,8.17
2018-11-04T20:22:34.507Z,5.43
2018-11-04T20:25:09.072Z,7.03
2018-11-04T20:27:38.232Z,6.30
2018-11-04T20:30:09.236Z,8.50
2018-11-04T20:32:43.667Z,9.50
2018-11-04T20:35:13.430Z,7.30
2018-11-04T20:37:42.930Z,6.47
2018-11-04T20:40:17.395Z,8.13
2018-11-04T20:42:46.583Z,7.27
2018-11-04T20:45:15.758Z,5.07
2018-11-04T20:47:50.078Z,4.10
2018-11-04T20:50:24.619Z,6.97
2018-11-04T20:52:53.850Z,5.17
2018-11-04T20:55:22.999Z,6.13
2018-11-04T20:57:54.578Z,7.03
2018-11-04T21:00:23.676Z,7.42
2018-11-04T21:02:52.822Z,8.47
2018-11-04T21:05:22.112Z,6.70
2018-11-04T21:07:51.288Z,4.53
2018-11-04T21:10:20.507Z,5.90
2018-11-04T21:12:49.935Z,7.00
2018-11-04T21:15:19.079Z,7.67
2018-11-04T21:17:48.319Z,5.97
2018-11-04T21:20:17.458Z,7.47
2018-11-04T21:22:46.636Z,6.57
2018-11-04T21:25:15.835Z,5.13
2018-11-04T21:27:45.055Z,7.57
2018-11-04T21:30:14.422Z,5.72
2018-11-04T21:32:44.022Z,5.30
2018-11-04T21:35:13.159Z,8.97
2018-11-04T21:37:42.327Z,7.42
2018-11-04T21:40:11.519Z,6.00
2018-11-04T21:42:40.862Z,5.73
2018-11-04T21:45:12.000Z,5.67
2018-11-04T21:47:41.350Z,7.47
2018-11-04T21:50:11.179Z,5.13
2018-11-04T21:52:40.554Z,6.70
2018-11-04T21:55:12.034Z,4.50
2018-11-04T21:57:42.352Z,6.83
2018-11-04T22:00:13.299Z,4.67
2018-11-04T22:02:42.925Z,6.08
2018-11-04T22:05:12.300Z,5.63
2018-11-04T22:07:42.411Z,4.80
2018-11-04T22:10:13.859Z,4.20
2018-11-04T22:12:44.120Z,5.43
2018-11-04T22:15:13.403Z,4.80
2018-11-04T22:17:42.876Z,9.57
2018-11-04T22:20:13.154Z,5.20
2018-11-04T22:22:42.300Z,4.33
2018-11-04T22:25:11.815Z,4.43
2018-11-04T22:27:40.994Z,7.53
2018-11-04T22:30:11.469Z,4.87
2018-11-04T22:32:40.648Z,3.03
2018-11-04T22:35:11.388Z,5.40
2018-11-04T22:37:40.535Z,7.03
2018-11-04T22:40:11.102Z,7.43
2018-11-04T22:42:40.902Z,5.93
2018-11-04T22:45:11.352Z,8.80
2018-11-04T22:47:41.273Z,4.50
2018-11-04T22:50:14.754Z,6.67
2018-11-04T22:52:44.211Z,5.05
2018-11-04T22:55:14.184Z,4.62
2018-11-04T22:57:43.890Z,4.73
2018-11-04T23:00:18.319Z,5.93
2018-11-04T23:02:48.767Z,6.17
2018-11-04T23:05:23.388Z,5.77
2018-11-04T23:07:52.971Z,5.93
2018-11-04T23:10:22.254Z,8.57
2018-11-04T23:12:52.462Z,5.27
2018-11-04T23:15:21.628Z,5.65
2018-11-04T23:17:51.009Z,5.92
2018-11-04T23:20:20.163Z,6.03
2018-11-04T23:22:49.314Z,5.27
2018-11-04T23:25:18.471Z,4.47
2018-11-04T23:27:47.612Z,7.53
2018-11-04T23:30:17.999Z,7.43
2018-11-04T23:32:47.671Z,6.03
2018-11-04T23:35:16.833Z,7.47
2018-11-04T23:37:46.008Z,4.43
2018-11-04T23:40:15.215Z,7.15
2018-11-04T23:42:44.354Z,4.83
2018-11-04T23:45:14.567Z,5.72
2018-11-04T23:47:44.003Z,6.07
2018-11-04T23:50:14.754Z,5.40
2018-11-04T23:52:44.287Z,7.17
2018-11-04T23:55:14.181Z,7.63
2018-11-04T23:57:43.352Z,5.00
